sensor_id;sensor_type;location;lat;lon;timestamp;pressure;altitude;pressure_sealevel;temperature;humidity
60725;BME280;59881;36.722;-4.462;2023-03-22T00:02:24;101045.53;;;10.95;60.23
60725;BME280;59881;36.722;-4.462;2023-03-22T00:04:51;101044.44;;;11.41;60.05
60725;BME280;59881;36.722;-4.462;2023-03-22T00:07:16;101058.44;;;11.56;60.14
60725;BME280;59881;36.722;-4.462;2023-03-22T00:09:42;101060.03;;;11.58;60.15
60725;BME280;59881;36.722;-4.462;2023-03-22T00:12:08;101071.94;;;11.64;60.18
60725;BME280;59881;36.722;-4.462;2023-03-22T00:14:33;100706.81;;;9.38;60.04
60725;BME280;59881;36.722;-4.462;2023-03-22T00:16:59;100912.34;;;10.63;60.48
60725;BME280;59881;36.722;-4.462;2023-03-22T00:19:24;100997.69;;;11.16;60.87
60725;BME280;59881;36.722;-4.462;2023-03-22T00:21:50;100607.50;;;8.86;60.84
60725;BME280;59881;36.722;-4.462;2023-03-22T00:24:16;101045.25;;;11.56;61.32
60725;BME280;59881;36.722;-4.462;2023-03-22T00:26:42;101073.81;;;11.76;61.80
60725;BME280;59881;36.722;-4.462;2023-03-22T00:29:07;101065.69;;;11.79;62.02
60725;BME280;59881;36.722;-4.462;2023-03-22T00:31:33;100956.97;;;11.20;62.25
60725;BME280;59881;36.722;-4.462;2023-03-22T00:33:58;100609.47;;;9.11;62.36
60725;BME280;59881;36.722;-4.462;2023-03-22T00:36:24;101030.88;;;11.60;62.53
60725;BME280;59881;36.722;-4.462;2023-03-22T00:38:50;101099.31;;;11.49;62.67
60725;BME280;59881;36.722;-4.462;2023-03-22T00:41:18;101128.41;;;11.76;62.79
60725;BME280;59881;36.722;-4.462;2023-03-22T00:43:45;100890.38;;;10.76;62.53
60725;BME280;59881;36.722;-4.462;2023-03-22T00:46:12;101045.81;;;11.74;62.54
60725;BME280;59881;36.722;-4.462;2023-03-22T00:48:39;100656.41;;;9.46;62.79
60725;BME280;59881;36.722;-4.462;2023-03-22T00:51:06;100197.09;;;6.72;62.39
60725;BME280;59881;36.722;-4.462;2023-03-22T00:53:32;100762.84;;;10.10;62.78
60725;BME280;59881;36.722;-4.462;2023-03-22T00:55:58;101007.91;;;11.75;62.56
60725;BME280;59881;36.722;-4.462;2023-03-22T00:58:24;101031.22;;;11.95;63.14
60725;BME280;59881;36.722;-4.462;2023-03-22T01:00:50;101030.28;;;11.96;62.90
60725;BME280;59881;36.722;-4.462;2023-03-22T01:03:16;101027.63;;;11.96;62.84
60725;BME280;59881;36.722;-4.462;2023-03-22T01:05:44;100966.53;;;11.63;63.38
60725;BME280;59881;36.722;-4.462;2023-03-22T01:08:10;101003.06;;;11.81;63.59
60725;BME280;59881;36.722;-4.462;2023-03-22T01:10:38;101009.66;;;11.89;63.97
60725;BME280;59881;36.722;-4.462;2023-03-22T01:13:04;101018.53;;;11.88;64.30
60725;BME280;59881;36.722;-4.462;2023-03-22T01:15:30;101009.09;;;11.84;64.41
60725;BME280;59881;36.722;-4.462;2023-03-22T01:17:56;100922.72;;;11.33;65.05
60725;BME280;59881;36.722;-4.462;2023-03-22T01:20:22;101006.47;;;11.84;65.08
60725;BME280;59881;36.722;-4.462;2023-03-22T01:22:47;100912.41;;;11.03;64.86
60725;BME280;59881;36.722;-4.462;2023-03-22T01:25:13;101098.84;;;11.84;64.94
60725;BME280;59881;36.722;-4.462;2023-03-22T01:27:39;100965.56;;;11.64;64.99
60725;BME280;59881;36.722;-4.462;2023-03-22T01:30:06;100278.34;;;7.45;64.81
60725;BME280;59881;36.722;-4.462;2023-03-22T01:32:32;100918.84;;;11.38;65.20
60725;BME280;59881;36.722;-4.462;2023-03-22T01:34:58;100996.22;;;11.79;65.37
60725;BME280;59881;36.722;-4.462;2023-03-22T01:37:23;100690.81;;;9.84;65.37
60725;BME280;59881;36.722;-4.462;2023-03-22T01:39:53;100977.97;;;11.22;65.48
60725;BME280;59881;36.722;-4.462;2023-03-22T01:42:19;100999.38;;;11.71;65.54
60725;BME280;59881;36.722;-4.462;2023-03-22T01:47:48;100951.19;;;11.55;65.00
60725;BME280;59881;36.722;-4.462;2023-03-22T01:50:16;100862.13;;;11.06;64.65
60725;BME280;59881;36.722;-4.462;2023-03-22T01:52:42;100596.94;;;8.43;64.50
60725;BME280;59881;36.722;-4.462;2023-03-22T01:55:08;100580.78;;;9.49;64.85
60725;BME280;59881;36.722;-4.462;2023-03-22T01:57:35;100868.72;;;11.26;64.90
60725;BME280;59881;36.722;-4.462;2023-03-22T02:00:04;100296.91;;;7.71;64.89
60725;BME280;59881;36.722;-4.462;2023-03-22T02:02:34;100147.16;;;6.75;64.78
60725;BME280;59881;36.722;-4.462;2023-03-22T02:05:00;100965.06;;;11.71;65.04
60725;BME280;59881;36.722;-4.462;2023-03-22T02:07:28;100948.56;;;11.68;65.17
60725;BME280;59881;36.722;-4.462;2023-03-22T02:09:57;100922.69;;;11.47;65.64
60725;BME280;59881;36.722;-4.462;2023-03-22T02:15:11;100734.78;;;9.97;65.70
60725;BME280;59881;36.722;-4.462;2023-03-22T02:18:20;100946.38;;;11.74;66.28
60725;BME280;59881;36.722;-4.462;2023-03-22T02:29:42;100887.84;;;11.55;66.84
60725;BME280;59881;36.722;-4.462;2023-03-22T02:46:21;100912.28;;;11.71;67.56
60725;BME280;59881;36.722;-4.462;2023-03-22T02:49:25;100915.94;;;11.69;67.23
60725;BME280;59881;36.722;-4.462;2023-03-22T02:52:01;100367.31;;;8.34;66.44
60725;BME280;59881;36.722;-4.462;2023-03-22T02:54:34;100904.44;;;11.57;66.37
60725;BME280;59881;36.722;-4.462;2023-03-22T02:57:07;100914.34;;;11.53;66.54
60725;BME280;59881;36.722;-4.462;2023-03-22T02:59:36;100907.38;;;11.52;66.63
60725;BME280;59881;36.722;-4.462;2023-03-22T03:02:08;100905.69;;;11.51;66.14
60725;BME280;59881;36.722;-4.462;2023-03-22T03:04:39;100910.31;;;11.48;66.18
60725;BME280;59881;36.722;-4.462;2023-03-22T03:07:08;100825.25;;;10.91;66.15
60725;BME280;59881;36.722;-4.462;2023-03-22T03:09:39;100905.66;;;11.38;65.91
60725;BME280;59881;36.722;-4.462;2023-03-22T03:12:25;100907.66;;;11.35;66.17
60725;BME280;59881;36.722;-4.462;2023-03-22T03:14:51;100901.44;;;11.36;65.98
60725;BME280;59881;36.722;-4.462;2023-03-22T03:17:46;100892.25;;;11.42;65.85
60725;BME280;59881;36.722;-4.462;2023-03-22T03:30:31;100508.16;;;8.93;66.23
60725;BME280;59881;36.722;-4.462;2023-03-22T03:33:06;100824.50;;;10.76;66.42
60725;BME280;59881;36.722;-4.462;2023-03-22T03:35:50;100990.91;;;11.12;66.79
60725;BME280;59881;36.722;-4.462;2023-03-22T03:38:22;100895.56;;;11.05;67.18
60725;BME280;59881;36.722;-4.462;2023-03-22T03:40:54;100777.59;;;10.27;67.17
60725;BME280;59881;36.722;-4.462;2023-03-22T03:43:22;100791.69;;;10.26;67.27
60725;BME280;59881;36.722;-4.462;2023-03-22T03:45:50;100899.56;;;10.84;67.63
60725;BME280;59881;36.722;-4.462;2023-03-22T03:48:25;100960.59;;;10.63;67.99
60725;BME280;59881;36.722;-4.462;2023-03-22T03:50:53;100894.16;;;10.72;67.89
60725;BME280;59881;36.722;-4.462;2023-03-22T03:53:20;100896.25;;;10.67;67.74
60725;BME280;59881;36.722;-4.462;2023-03-22T03:55:46;100833.81;;;10.26;67.92
60725;BME280;59881;36.722;-4.462;2023-03-22T03:58:11;100904.06;;;10.54;68.61
60725;BME280;59881;36.722;-4.462;2023-03-22T04:00:37;100893.81;;;10.50;68.59
60725;BME280;59881;36.722;-4.462;2023-03-22T04:03:04;100891.47;;;10.45;68.74
60725;BME280;59881;36.722;-4.462;2023-03-22T04:05:31;100472.53;;;7.86;68.74
60725;BME280;59881;36.722;-4.462;2023-03-22T04:07:56;100827.72;;;9.97;69.35
60725;BME280;59881;36.722;-4.462;2023-03-22T04:10:22;100897.66;;;10.44;69.38
60725;BME280;59881;36.722;-4.462;2023-03-22T04:12:48;100903.69;;;10.46;69.54
60725;BME280;59881;36.722;-4.462;2023-03-22T04:15:14;100896.53;;;10.48;69.53
60725;BME280;59881;36.722;-4.462;2023-03-22T04:17:39;100898.88;;;10.53;69.41
60725;BME280;59881;36.722;-4.462;2023-03-22T04:20:09;100907.44;;;10.56;68.98
60725;BME280;59881;36.722;-4.462;2023-03-22T04:22:37;100909.13;;;10.57;68.97
60725;BME280;59881;36.722;-4.462;2023-03-22T04:25:04;100444.34;;;7.60;68.57
60725;BME280;59881;36.722;-4.462;2023-03-22T04:27:29;100839.84;;;10.14;69.06
60725;BME280;59881;36.722;-4.462;2023-03-22T04:29:55;100904.16;;;10.53;68.57
60725;BME280;59881;36.722;-4.462;2023-03-22T04:32:22;100855.38;;;10.19;68.18
60725;BME280;59881;36.722;-4.462;2023-03-22T04:34:51;100909.78;;;10.47;68.11
60725;BME280;59881;36.722;-4.462;2023-03-22T04:37:18;100877.34;;;10.18;68.09
60725;BME280;59881;36.722;-4.462;2023-03-22T04:39:44;100913.00;;;10.38;67.94
60725;BME280;59881;36.722;-4.462;2023-03-22T04:42:10;100884.03;;;10.23;67.97
60725;BME280;59881;36.722;-4.462;2023-03-22T04:44:36;100870.28;;;10.18;67.81
60725;BME280;59881;36.722;-4.462;2023-03-22T04:47:02;100910.28;;;10.39;67.73
60725;BME280;59881;36.722;-4.462;2023-03-22T04:49:28;100860.63;;;10.04;67.49
60725;BME280;59881;36.722;-4.462;2023-03-22T04:51:56;100917.53;;;10.35;67.61
60725;BME280;59881;36.722;-4.462;2023-03-22T04:54:22;100152.81;;;5.75;67.25
60725;BME280;59881;36.722;-4.462;2023-03-22T04:56:48;100919.59;;;10.30;67.45
60725;BME280;59881;36.722;-4.462;2023-03-22T04:59:14;100596.63;;;7.87;67.27
60725;BME280;59881;36.722;-4.462;2023-03-22T05:01:42;100877.66;;;9.99;67.60
60725;BME280;59881;36.722;-4.462;2023-03-22T05:04:07;100211.19;;;5.91;67.17
60725;BME280;59881;36.722;-4.462;2023-03-22T05:06:33;100918.63;;;10.17;67.73
60725;BME280;59881;36.722;-4.462;2023-03-22T05:08:59;100918.72;;;10.15;67.33
60725;BME280;59881;36.722;-4.462;2023-03-22T05:11:26;100920.44;;;10.17;67.83
60725;BME280;59881;36.722;-4.462;2023-03-22T05:13:56;100799.16;;;9.48;67.61
60725;BME280;59881;36.722;-4.462;2023-03-22T05:16:22;100915.91;;;10.19;67.74
60725;BME280;59881;36.722;-4.462;2023-03-22T05:18:49;100884.50;;;10.01;67.52
60725;BME280;59881;36.722;-4.462;2023-03-22T05:21:19;101054.03;;;10.13;67.48
60725;BME280;59881;36.722;-4.462;2023-03-22T05:23:53;100916.28;;;10.12;67.70
60725;BME280;59881;36.722;-4.462;2023-03-22T05:26:19;100847.66;;;9.72;67.47
60725;BME280;59881;36.722;-4.462;2023-03-22T05:28:49;100916.09;;;10.15;67.38
60725;BME280;59881;36.722;-4.462;2023-03-22T05:31:16;100883.09;;;9.95;67.31
60725;BME280;59881;36.722;-4.462;2023-03-22T05:33:42;100852.72;;;9.76;67.17
60725;BME280;59881;36.722;-4.462;2023-03-22T05:36:08;100436.25;;;7.18;67.03
60725;BME280;59881;36.722;-4.462;2023-03-22T05:38:35;100862.78;;;9.83;67.29
60725;BME280;59881;36.722;-4.462;2023-03-22T05:41:01;100715.31;;;8.84;67.19
60725;BME280;59881;36.722;-4.462;2023-03-22T05:43:26;100910.63;;;10.04;67.31
60725;BME280;59881;36.722;-4.462;2023-03-22T05:45:52;100907.38;;;10.01;67.14
60725;BME280;59881;36.722;-4.462;2023-03-22T05:48:17;100434.28;;;7.06;66.83
60725;BME280;59881;36.722;-4.462;2023-03-22T05:50:43;100820.63;;;9.40;66.81
60725;BME280;59881;36.722;-4.462;2023-03-22T05:53:09;100886.09;;;9.75;66.80
60725;BME280;59881;36.722;-4.462;2023-03-22T05:55:36;100817.81;;;9.29;66.80
60725;BME280;59881;36.722;-4.462;2023-03-22T05:58:01;100745.44;;;8.93;66.82
60725;BME280;59881;36.722;-4.462;2023-03-22T06:00:27;100915.03;;;9.89;67.02
60725;BME280;59881;36.722;-4.462;2023-03-22T06:02:57;100913.28;;;9.90;67.14
60725;BME280;59881;36.722;-4.462;2023-03-22T06:05:24;100885.69;;;9.67;67.11
60725;BME280;59881;36.722;-4.462;2023-03-22T06:07:50;100849.28;;;9.45;67.20
60725;BME280;59881;36.722;-4.462;2023-03-22T06:10:16;101016.03;;;9.72;67.66
60725;BME280;59881;36.722;-4.462;2023-03-22T06:12:42;100934.22;;;9.91;67.37
60725;BME280;59881;36.722;-4.462;2023-03-22T06:15:08;100932.44;;;9.92;67.38
60725;BME280;59881;36.722;-4.462;2023-03-22T06:17:34;100907.97;;;9.76;67.56
60725;BME280;59881;36.722;-4.462;2023-03-22T06:20:02;99977.13;;;4.09;67.40
60725;BME280;59881;36.722;-4.462;2023-03-22T06:22:34;100956.22;;;9.60;67.90
60725;BME280;59881;36.722;-4.462;2023-03-22T06:25:00;100930.50;;;10.10;67.43
60725;BME280;59881;36.722;-4.462;2023-03-22T06:27:25;100845.94;;;9.71;67.45
60725;BME280;59881;36.722;-4.462;2023-03-22T06:29:51;100936.97;;;10.76;67.73
60725;BME280;59881;36.722;-4.462;2023-03-22T06:32:19;100243.47;;;7.14;67.32
60725;BME280;59881;36.722;-4.462;2023-03-22T06:34:48;100939.13;;;12.42;66.16
60725;BME280;59881;36.722;-4.462;2023-03-22T06:37:13;100941.41;;;13.33;64.01
60725;BME280;59881;36.722;-4.462;2023-03-22T06:39:41;100846.31;;;13.77;61.35
60725;BME280;59881;36.722;-4.462;2023-03-22T06:42:06;100902.84;;;15.00;58.00
60725;BME280;59881;36.722;-4.462;2023-03-22T06:44:32;100922.50;;;16.04;54.70
60725;BME280;59881;36.722;-4.462;2023-03-22T06:46:57;100983.47;;;16.88;51.93
60725;BME280;59881;36.722;-4.462;2023-03-22T06:49:23;100791.03;;;16.97;49.15
60725;BME280;59881;36.722;-4.462;2023-03-22T06:51:48;100658.88;;;16.49;46.60
60725;BME280;59881;36.722;-4.462;2023-03-22T06:54:14;100765.94;;;18.31;44.76
60725;BME280;59881;36.722;-4.462;2023-03-22T06:56:41;100804.78;;;19.23;42.82
60725;BME280;59881;36.722;-4.462;2023-03-22T06:59:06;100719.72;;;19.29;41.25
60725;BME280;59881;36.722;-4.462;2023-03-22T07:01:32;100866.75;;;20.82;39.46
60725;BME280;59881;36.722;-4.462;2023-03-22T07:03:57;100990.78;;;21.75;38.31
60725;BME280;59881;36.722;-4.462;2023-03-22T07:06:24;100927.03;;;22.26;37.27
60725;BME280;59881;36.722;-4.462;2023-03-22T07:08:50;100934.44;;;22.94;36.11
60725;BME280;59881;36.722;-4.462;2023-03-22T07:11:16;100943.66;;;23.46;35.12
60725;BME280;59881;36.722;-4.462;2023-03-22T07:13:41;100934.25;;;23.65;34.44
60725;BME280;59881;36.722;-4.462;2023-03-22T07:16:07;100671.69;;;22.37;33.41
60725;BME280;59881;36.722;-4.462;2023-03-22T07:18:33;100657.34;;;21.67;33.48
60725;BME280;59881;36.722;-4.462;2023-03-22T07:20:58;100758.38;;;22.84;33.20
60725;BME280;59881;36.722;-4.462;2023-03-22T07:23:24;100764.97;;;23.19;33.10
60725;BME280;59881;36.722;-4.462;2023-03-22T07:25:50;100912.16;;;24.37;32.40
60725;BME280;59881;36.722;-4.462;2023-03-22T07:28:16;100938.19;;;24.60;32.01
60725;BME280;59881;36.722;-4.462;2023-03-22T07:30:43;100992.16;;;25.39;31.22
60725;BME280;59881;36.722;-4.462;2023-03-22T07:33:09;100995.72;;;25.90;31.07
60725;BME280;59881;36.722;-4.462;2023-03-22T07:35:36;100698.34;;;24.75;30.07
60725;BME280;59881;36.722;-4.462;2023-03-22T07:38:02;101059.50;;;26.75;29.64
60725;BME280;59881;36.722;-4.462;2023-03-22T07:40:29;100803.22;;;26.17;29.11
60725;BME280;59881;36.722;-4.462;2023-03-22T07:42:55;100537.97;;;24.72;28.54
60725;BME280;59881;36.722;-4.462;2023-03-22T07:45:21;100993.81;;;27.50;27.99
60725;BME280;59881;36.722;-4.462;2023-03-22T07:47:47;100969.06;;;27.66;28.10
60725;BME280;59881;36.722;-4.462;2023-03-22T07:50:13;100962.22;;;27.97;27.61
60725;BME280;59881;36.722;-4.462;2023-03-22T07:52:40;100920.75;;;28.03;27.21
60725;BME280;59881;36.722;-4.462;2023-03-22T07:55:07;100967.22;;;28.78;26.26
60725;BME280;59881;36.722;-4.462;2023-03-22T07:57:34;100949.78;;;28.99;26.24
60725;BME280;59881;36.722;-4.462;2023-03-22T08:00:00;100732.28;;;27.95;25.52
60725;BME280;59881;36.722;-4.462;2023-03-22T08:02:26;100976.88;;;30.13;24.68
60725;BME280;59881;36.722;-4.462;2023-03-22T08:04:52;100969.00;;;30.48;24.48
60725;BME280;59881;36.722;-4.462;2023-03-22T08:07:19;100754.47;;;29.49;23.88
60725;BME280;59881;36.722;-4.462;2023-03-22T08:09:45;100985.03;;;31.35;23.44
60725;BME280;59881;36.722;-4.462;2023-03-22T08:12:11;100653.50;;;29.78;23.25
60725;BME280;59881;36.722;-4.462;2023-03-22T08:14:37;100707.63;;;30.75;22.37
60725;BME280;59881;36.722;-4.462;2023-03-22T08:17:06;100913.56;;;32.63;22.03
60725;BME280;59881;36.722;-4.462;2023-03-22T08:19:32;100983.84;;;33.59;21.71
60725;BME280;59881;36.722;-4.462;2023-03-22T08:21:58;100870.44;;;33.39;21.27
60725;BME280;59881;36.722;-4.462;2023-03-22T08:24:25;100979.91;;;34.45;20.26
60725;BME280;59881;36.722;-4.462;2023-03-22T08:26:51;100946.97;;;34.56;20.18
60725;BME280;59881;36.722;-4.462;2023-03-22T08:29:17;100890.44;;;34.18;19.37
60725;BME280;59881;36.722;-4.462;2023-03-22T08:31:44;100985.47;;;35.21;18.99
60725;BME280;59881;36.722;-4.462;2023-03-22T08:34:10;100989.56;;;35.56;18.95
60725;BME280;59881;36.722;-4.462;2023-03-22T08:36:36;100985.75;;;35.89;18.47
60725;BME280;59881;36.722;-4.462;2023-03-22T08:39:02;100941.91;;;35.89;18.43
60725;BME280;59881;36.722;-4.462;2023-03-22T08:41:28;100979.22;;;36.53;18.35
60725;BME280;59881;36.722;-4.462;2023-03-22T08:43:54;100945.22;;;36.59;17.89
60725;BME280;59881;36.722;-4.462;2023-03-22T08:46:19;100989.34;;;37.21;17.60
60725;BME280;59881;36.722;-4.462;2023-03-22T08:48:45;100979.50;;;37.56;17.08
60725;BME280;59881;36.722;-4.462;2023-03-22T08:51:19;101051.75;;;37.82;17.05
60725;BME280;59881;36.722;-4.462;2023-03-22T08:53:47;100946.16;;;37.93;16.64
60725;BME280;59881;36.722;-4.462;2023-03-22T08:56:13;100916.44;;;38.05;16.51
60725;BME280;59881;36.722;-4.462;2023-03-22T08:58:42;100999.69;;;38.91;16.38
60725;BME280;59881;36.722;-4.462;2023-03-22T09:01:14;100998.13;;;39.25;16.36
60725;BME280;59881;36.722;-4.462;2023-03-22T09:03:40;101002.47;;;39.65;16.24
60725;BME280;59881;36.722;-4.462;2023-03-22T09:06:06;100601.03;;;37.61;16.60
60725;BME280;59881;36.722;-4.462;2023-03-22T09:08:32;100731.03;;;38.51;16.37
60725;BME280;59881;36.722;-4.462;2023-03-22T09:10:58;101004.97;;;40.68;16.09
60725;BME280;59881;36.722;-4.462;2023-03-22T09:13:24;100707.38;;;39.08;16.21
60725;BME280;59881;36.722;-4.462;2023-03-22T09:15:50;100758.16;;;39.69;15.26
60725;BME280;59881;36.722;-4.462;2023-03-22T09:18:16;101007.03;;;41.85;15.40
60725;BME280;59881;36.722;-4.462;2023-03-22T09:20:43;100984.50;;;42.20;15.13
60725;BME280;59881;36.722;-4.462;2023-03-22T09:23:10;100763.63;;;41.44;14.84
60725;BME280;59881;36.722;-4.462;2023-03-22T09:25:36;100987.31;;;43.06;13.91
60725;BME280;59881;36.722;-4.462;2023-03-22T09:28:01;100799.81;;;41.97;13.87
60725;BME280;59881;36.722;-4.462;2023-03-22T09:30:29;101031.56;;;43.79;13.58
60725;BME280;59881;36.722;-4.462;2023-03-22T09:32:55;100665.56;;;41.77;13.54
60725;BME280;59881;36.722;-4.462;2023-03-22T09:35:21;101016.19;;;44.44;12.85
60725;BME280;59881;36.722;-4.462;2023-03-22T09:37:47;101061.44;;;44.45;12.55
60725;BME280;59881;36.722;-4.462;2023-03-22T09:40:14;101024.44;;;44.18;12.52
60725;BME280;59881;36.722;-4.462;2023-03-22T09:42:51;101024.63;;;44.39;13.18
60725;BME280;59881;36.722;-4.462;2023-03-22T09:45:20;101004.88;;;44.40;12.65
60725;BME280;59881;36.722;-4.462;2023-03-22T09:47:52;100998.44;;;44.97;12.56
60725;BME280;59881;36.722;-4.462;2023-03-22T09:50:24;100997.63;;;45.23;12.17
60725;BME280;59881;36.722;-4.462;2023-03-22T09:52:51;100836.53;;;43.70;12.36
60725;BME280;59881;36.722;-4.462;2023-03-22T09:55:38;100989.34;;;43.14;13.72
60725;BME280;59881;36.722;-4.462;2023-03-22T09:58:20;101027.56;;;40.94;15.42
60725;BME280;59881;36.722;-4.462;2023-03-22T10:00:59;101024.47;;;39.76;16.69
60725;BME280;59881;36.722;-4.462;2023-03-22T10:06:08;101008.44;;;41.17;15.71
60725;BME280;59881;36.722;-4.462;2023-03-22T10:11:52;100799.69;;;43.38;12.28
60725;BME280;59881;36.722;-4.462;2023-03-22T10:14:44;101019.53;;;45.25;12.16
60725;BME280;59881;36.722;-4.462;2023-03-22T10:17:15;101018.19;;;46.42;11.15
60725;BME280;59881;36.722;-4.462;2023-03-22T10:19:52;101019.25;;;46.20;11.44
60725;BME280;59881;36.722;-4.462;2023-03-22T10:22:22;100999.03;;;45.55;11.64
60725;BME280;59881;36.722;-4.462;2023-03-22T10:24:51;100867.19;;;44.39;12.10
60725;BME280;59881;36.722;-4.462;2023-03-22T10:27:20;100906.91;;;44.83;12.07
60725;BME280;59881;36.722;-4.462;2023-03-22T10:29:55;101006.78;;;44.97;11.91
60725;BME280;59881;36.722;-4.462;2023-03-22T10:32:45;100875.38;;;44.45;12.40
60725;BME280;59881;36.722;-4.462;2023-03-22T10:35:16;101025.09;;;45.07;12.64
60725;BME280;59881;36.722;-4.462;2023-03-22T10:37:46;101022.81;;;46.30;11.89
60725;BME280;59881;36.722;-4.462;2023-03-22T10:40:23;101029.69;;;46.62;12.08
60725;BME280;59881;36.722;-4.462;2023-03-22T10:42:56;101017.66;;;46.70;12.15
60725;BME280;59881;36.722;-4.462;2023-03-22T10:45:24;100994.66;;;46.01;12.12
60725;BME280;59881;36.722;-4.462;2023-03-22T10:48:04;100999.41;;;44.09;13.63
60725;BME280;59881;36.722;-4.462;2023-03-22T10:50:35;100847.19;;;41.54;14.41
60725;BME280;59881;36.722;-4.462;2023-03-22T10:53:07;100992.97;;;41.16;15.80
60725;BME280;59881;36.722;-4.462;2023-03-22T10:55:41;100996.22;;;37.59;18.77
60725;BME280;59881;36.722;-4.462;2023-03-22T11:00:44;101011.59;;;27.11;31.56
60725;BME280;59881;36.722;-4.462;2023-03-22T11:03:24;100901.78;;;23.90;36.74
60725;BME280;59881;36.722;-4.462;2023-03-22T11:06:02;100808.59;;;21.81;40.26
60725;BME280;59881;36.722;-4.462;2023-03-22T11:08:47;101081.47;;;22.45;42.38
60725;BME280;59881;36.722;-4.462;2023-03-22T11:13:50;100985.69;;;20.63;44.94
60725;BME280;59881;36.722;-4.462;2023-03-22T11:16:17;100909.06;;;20.28;45.08
60725;BME280;59881;36.722;-4.462;2023-03-22T11:18:43;100640.66;;;18.04;46.46
60725;BME280;59881;36.722;-4.462;2023-03-22T11:21:10;100976.41;;;19.97;47.55
60725;BME280;59881;36.722;-4.462;2023-03-22T11:23:40;101070.03;;;20.50;47.19
60725;BME280;59881;36.722;-4.462;2023-03-22T11:26:12;101068.16;;;20.42;46.90
60725;BME280;59881;36.722;-4.462;2023-03-22T11:28:46;101017.97;;;19.38;46.05
60725;BME280;59881;36.722;-4.462;2023-03-22T11:31:20;100709.63;;;17.89;44.47
60725;BME280;59881;36.722;-4.462;2023-03-22T11:34:00;101058.63;;;19.95;44.84
60725;BME280;59881;36.722;-4.462;2023-03-22T11:36:26;100739.00;;;17.32;42.09
60725;BME280;59881;36.722;-4.462;2023-03-22T11:38:57;101054.88;;;19.88;43.23
60725;BME280;59881;36.722;-4.462;2023-03-22T11:41:28;100871.34;;;18.81;42.30
60725;BME280;59881;36.722;-4.462;2023-03-22T11:44:11;101052.66;;;20.01;41.78
60725;BME280;59881;36.722;-4.462;2023-03-22T11:46:38;101065.47;;;19.98;41.60
60725;BME280;59881;36.722;-4.462;2023-03-22T11:49:07;100621.63;;;17.25;40.68
60725;BME280;59881;36.722;-4.462;2023-03-22T11:51:38;101056.41;;;19.73;39.04
60725;BME280;59881;36.722;-4.462;2023-03-22T11:54:14;101057.03;;;19.57;38.55
60725;BME280;59881;36.722;-4.462;2023-03-22T11:56:47;101110.09;;;19.52;36.88
60725;BME280;59881;36.722;-4.462;2023-03-22T11:59:28;101030.47;;;19.37;38.15
60725;BME280;59881;36.722;-4.462;2023-03-22T12:04:25;101011.38;;;19.32;38.05
60725;BME280;59881;36.722;-4.462;2023-03-22T12:06:55;100287.13;;;14.93;37.93
60725;BME280;59881;36.722;-4.462;2023-03-22T12:09:43;101049.09;;;19.47;39.50
60725;BME280;59881;36.722;-4.462;2023-03-22T12:12:16;101044.44;;;19.31;37.61
60725;BME280;59881;36.722;-4.462;2023-03-22T12:14:51;101038.06;;;19.14;36.07
60725;BME280;59881;36.722;-4.462;2023-03-22T12:17:33;101094.97;;;19.15;36.96
60725;BME280;59881;36.722;-4.462;2023-03-22T12:20:09;101043.72;;;19.11;37.94
60725;BME280;59881;36.722;-4.462;2023-03-22T12:22:42;101032.84;;;19.13;38.38
60725;BME280;59881;36.722;-4.462;2023-03-22T12:25:16;101024.31;;;19.09;38.51
60725;BME280;59881;36.722;-4.462;2023-03-22T12:28:03;101001.94;;;18.92;38.92
60725;BME280;59881;36.722;-4.462;2023-03-22T12:30:38;101025.47;;;19.07;37.70
60725;BME280;59881;36.722;-4.462;2023-03-22T12:33:09;101015.63;;;19.07;36.75
60725;BME280;59881;36.722;-4.462;2023-03-22T12:35:42;101028.78;;;18.53;36.50
60725;BME280;59881;36.722;-4.462;2023-03-22T12:38:25;100987.59;;;18.93;38.12
60725;BME280;59881;36.722;-4.462;2023-03-22T12:40:54;101015.50;;;18.99;37.33
60725;BME280;59881;36.722;-4.462;2023-03-22T12:46:34;101005.28;;;18.94;36.22
60725;BME280;59881;36.722;-4.462;2023-03-22T12:49:04;100967.56;;;18.79;35.79
60725;BME280;59881;36.722;-4.462;2023-03-22T12:51:30;100976.50;;;18.88;36.80
60725;BME280;59881;36.722;-4.462;2023-03-22T12:53:57;100994.94;;;19.09;37.45
60725;BME280;59881;36.722;-4.462;2023-03-22T12:56:26;101001.88;;;19.02;38.31
60725;BME280;59881;36.722;-4.462;2023-03-22T12:59:05;100986.59;;;18.94;37.26
60725;BME280;59881;36.722;-4.462;2023-03-22T13:09:17;100943.00;;;18.76;36.85
60725;BME280;59881;36.722;-4.462;2023-03-22T13:22:27;101047.53;;;19.09;37.40
60725;BME280;59881;36.722;-4.462;2023-03-22T13:27:52;100408.56;;;15.67;38.03
60725;BME280;59881;36.722;-4.462;2023-03-22T13:35:43;100951.19;;;18.92;40.57
60725;BME280;59881;36.722;-4.462;2023-03-22T13:38:21;100953.88;;;18.92;40.98
60725;BME280;59881;36.722;-4.462;2023-03-22T13:46:09;100905.44;;;18.59;41.87
60725;BME280;59881;36.722;-4.462;2023-03-22T13:51:28;100932.59;;;18.73;41.57
60725;BME280;59881;36.722;-4.462;2023-03-22T14:02:26;100926.53;;;18.53;45.15
60725;BME280;59881;36.722;-4.462;2023-03-22T14:04:56;100924.72;;;18.53;46.65
60725;BME280;59881;36.722;-4.462;2023-03-22T14:07:29;100849.56;;;18.03;46.71
60725;BME280;59881;36.722;-4.462;2023-03-22T14:10:19;100800.13;;;17.71;46.66
60725;BME280;59881;36.722;-4.462;2023-03-22T14:15:15;100889.81;;;18.37;48.08
60725;BME280;59881;36.722;-4.462;2023-03-22T14:17:48;100918.13;;;18.48;48.66
60725;BME280;59881;36.722;-4.462;2023-03-22T14:20:18;100523.09;;;15.93;50.52
60725;BME280;59881;36.722;-4.462;2023-03-22T14:22:49;100894.91;;;18.03;51.29
60725;BME280;59881;36.722;-4.462;2023-03-22T14:25:17;100987.97;;;18.33;51.19
60725;BME280;59881;36.722;-4.462;2023-03-22T14:27:45;100878.13;;;18.20;51.72
60725;BME280;59881;36.722;-4.462;2023-03-22T14:30:26;100897.56;;;18.40;52.65
60725;BME280;59881;36.722;-4.462;2023-03-22T14:32:57;100916.22;;;18.03;54.28